createdAt,value
2023-04-02T00:01:20.681Z,1.30
2023-04-02T00:04:15.205Z,1.30
2023-04-02T00:06:45.674Z,1.00
2023-04-02T00:09:28.640Z,1.10
2023-04-02T00:11:56.417Z,1.07
2023-04-02T00:14:25.814Z,1.40
2023-04-02T00:16:53.599Z,1.30
2023-04-02T00:19:26.137Z,1.33
2023-04-02T00:21:53.895Z,1.60
2023-04-02T00:24:22.510Z,1.67
2023-04-02T00:26:50.643Z,1.80
2023-04-02T00:29:18.479Z,2.27
2023-04-02T00:31:47.493Z,2.00
2023-04-02T00:34:19.284Z,1.70
2023-04-02T00:36:49.108Z,1.90
2023-04-02T00:39:19.566Z,2.43
2023-04-02T00:41:47.757Z,1.60
2023-04-02T00:44:15.688Z,2.00
2023-04-02T00:46:49.431Z,1.67
2023-04-02T00:49:21.450Z,1.53
2023-04-02T00:51:51.547Z,2.07
2023-04-02T00:54:20.870Z,2.07
2023-04-02T00:56:49.914Z,2.40
2023-04-02T00:59:23.611Z,2.20
2023-04-02T01:01:54.383Z,2.30
2023-04-02T01:04:34.429Z,2.40
2023-04-02T01:07:06.686Z,2.10
2023-04-02T01:09:48.072Z,2.30
2023-04-02T01:12:37.813Z,2.40
2023-04-02T01:15:09.827Z,2.40
2023-04-02T01:17:48.861Z,1.77
2023-04-02T01:20:30.080Z,2.00
2023-04-02T01:23:00.733Z,1.80
2023-04-02T01:25:30.290Z,1.70
2023-04-02T01:28:00.221Z,1.87
2023-04-02T01:30:29.307Z,1.67
2023-04-02T01:32:57.119Z,1.90
2023-04-02T01:35:24.792Z,1.63
2023-04-02T01:37:56.157Z,1.50
2023-04-02T01:40:31.499Z,1.40
2023-04-02T01:43:01.928Z,1.40
2023-04-02T01:45:31.132Z,1.20
2023-04-02T01:47:58.862Z,1.50
2023-04-02T01:50:31.503Z,1.70
2023-04-02T01:53:00.893Z,1.70
2023-04-02T01:55:33.084Z,1.83
2023-04-02T01:58:01.389Z,1.80
2023-04-02T02:00:31.578Z,1.87
2023-04-02T02:03:00.403Z,1.87
2023-04-02T02:05:28.386Z,2.00
2023-04-02T02:07:56.541Z,2.03
2023-04-02T02:10:26.029Z,2.00
2023-04-02T02:12:53.678Z,2.17
2023-04-02T02:15:23.143Z,2.10
2023-04-02T02:17:52.760Z,1.90
2023-04-02T02:20:21.607Z,2.13
2023-04-02T02:22:50.057Z,2.17
2023-04-02T02:25:18.528Z,1.93
2023-04-02T02:27:59.358Z,2.40
2023-04-02T02:30:28.943Z,2.00
2023-04-02T02:33:01.819Z,1.80
2023-04-02T02:35:30.729Z,1.77
2023-04-02T02:38:01.178Z,2.10
2023-04-02T02:40:31.061Z,2.20
2023-04-02T02:43:00.730Z,1.90
2023-04-02T02:45:29.808Z,2.50
2023-04-02T02:47:58.944Z,3.03
2023-04-02T02:50:27.377Z,2.67
2023-04-02T02:52:56.059Z,2.43
2023-04-02T02:55:24.346Z,2.43
2023-04-02T02:57:53.974Z,2.43
2023-04-02T03:00:24.637Z,2.53
2023-04-02T03:02:52.818Z,2.80
2023-04-02T03:05:23.723Z,2.80
2023-04-02T03:07:52.158Z,2.73
2023-04-02T03:10:22.466Z,2.90
2023-04-02T03:12:51.417Z,2.43
2023-04-02T03:15:22.561Z,2.47
2023-04-02T03:17:52.511Z,2.60
2023-04-02T03:20:23.765Z,3.10
2023-04-02T03:22:54.007Z,3.03
2023-04-02T03:25:29.448Z,3.27
2023-04-02T03:27:59.224Z,3.10
2023-04-02T03:30:30.418Z,3.90
2023-04-02T03:32:59.262Z,4.03
2023-04-02T03:35:31.334Z,3.63
2023-04-02T03:38:01.317Z,2.23
2023-04-02T03:40:30.430Z,2.47
2023-04-02T03:43:01.921Z,3.23
2023-04-02T03:45:30.439Z,3.07
2023-04-02T03:47:59.831Z,3.23
2023-04-02T03:50:31.673Z,3.10
2023-04-02T03:53:00.160Z,3.47
2023-04-02T03:55:29.775Z,3.73
2023-04-02T03:58:00.859Z,3.33
2023-04-02T04:00:33.509Z,3.87
2023-04-02T04:03:04.419Z,3.93
2023-04-02T04:05:35.917Z,3.80
2023-04-02T04:08:05.083Z,4.77
2023-04-02T04:10:32.872Z,4.50
2023-04-02T04:13:03.753Z,3.90
2023-04-02T04:15:33.546Z,3.90
2023-04-02T04:18:03.179Z,3.97
2023-04-02T04:20:35.872Z,3.70
2023-04-02T04:23:12.044Z,4.20
2023-04-02T04:25:43.044Z,4.57
2023-04-02T04:28:16.415Z,4.00
2023-04-02T04:33:22.422Z,4.23
2023-04-02T04:35:54.129Z,3.30
2023-04-02T04:38:27.664Z,3.83
2023-04-02T04:40:56.295Z,4.10
2023-04-02T04:43:28.890Z,4.20
2023-04-02T04:45:57.693Z,5.17
2023-04-02T04:48:26.994Z,4.87
2023-04-02T04:50:56.907Z,5.07
2023-04-02T04:53:25.900Z,4.67
2023-04-02T04:55:54.024Z,4.80
2023-04-02T04:58:23.552Z,3.77
2023-04-02T05:01:01.725Z,4.40
2023-04-02T05:03:32.435Z,4.27
2023-04-02T05:06:06.451Z,4.60
2023-04-02T05:08:35.603Z,5.03
2023-04-02T05:11:05.951Z,4.50
2023-04-02T05:13:35.064Z,5.00
2023-04-02T05:16:05.953Z,5.03
2023-04-02T05:18:35.361Z,5.27
2023-04-02T05:21:07.401Z,5.40
2023-04-02T05:23:36.914Z,5.70
2023-04-02T05:26:06.715Z,6.13
2023-04-02T05:28:36.738Z,5.57
2023-04-02T05:31:06.403Z,5.33
2023-04-02T05:33:34.604Z,5.90
2023-04-02T05:36:03.729Z,5.93
2023-04-02T05:38:33.634Z,6.57
2023-04-02T05:41:03.957Z,11.23
2023-04-02T05:43:33.342Z,8.20
2023-04-02T05:46:03.692Z,6.80
2023-04-02T05:48:33.410Z,6.83
2023-04-02T05:51:01.190Z,6.80
2023-04-02T05:53:29.642Z,5.67
2023-04-02T05:56:00.837Z,6.40
2023-04-02T05:58:35.983Z,7.30
2023-04-02T06:01:15.343Z,6.13
2023-04-02T06:03:46.963Z,7.40
2023-04-02T06:06:18.660Z,6.63
2023-04-02T06:08:50.852Z,5.47
2023-04-02T06:11:21.324Z,7.13
2023-04-02T06:13:48.951Z,6.87
2023-04-02T06:16:16.866Z,8.10
2023-04-02T06:18:44.530Z,8.53
2023-04-02T06:21:13.320Z,7.43
2023-04-02T06:23:41.808Z,6.83
2023-04-02T06:26:13.996Z,6.57
2023-04-02T06:28:45.328Z,7.60
2023-04-02T06:31:17.732Z,7.40
2023-04-02T06:33:45.502Z,8.07
2023-04-02T06:36:13.223Z,7.00
2023-04-02T06:38:40.943Z,5.97
2023-04-02T06:41:13.039Z,7.53
2023-04-02T06:43:44.076Z,7.67
2023-04-02T06:46:15.015Z,5.33
2023-04-02T06:48:42.685Z,5.80
2023-04-02T06:51:11.342Z,7.27
2023-04-02T06:53:40.128Z,6.73
2023-04-02T06:56:11.520Z,16.23
2023-04-02T06:58:39.123Z,8.30
2023-04-02T07:01:08.406Z,8.87
2023-04-02T07:03:36.328Z,7.57
2023-04-02T07:06:04.225Z,6.87
2023-04-02T07:08:31.888Z,8.53
2023-04-02T07:11:00.800Z,7.00
2023-04-02T07:13:28.413Z,7.70
2023-04-02T07:15:56.268Z,7.93
2023-04-02T07:18:27.560Z,8.23
2023-04-02T07:20:55.567Z,8.43
2023-04-02T07:23:23.263Z,7.53
2023-04-02T07:25:51.240Z,7.80
2023-04-02T07:28:19.936Z,7.50
2023-04-02T07:30:49.114Z,6.80
2023-04-02T07:33:16.922Z,6.57
2023-04-02T07:35:46.274Z,7.77
2023-04-02T07:38:14.017Z,7.13
2023-04-02T07:40:41.914Z,6.67
2023-04-02T07:43:09.663Z,6.60
2023-04-02T07:45:37.580Z,5.73
2023-04-02T07:48:06.753Z,5.77
2023-04-02T07:50:34.595Z,5.67
2023-04-02T07:53:03.842Z,6.33
2023-04-02T07:55:31.617Z,6.27
2023-04-02T07:57:59.831Z,6.87
2023-04-02T08:00:28.599Z,6.70
2023-04-02T08:02:56.603Z,7.30
2023-04-02T08:05:24.385Z,5.00
2023-04-02T08:07:55.621Z,6.47
2023-04-02T08:10:24.740Z,6.67
2023-04-02T08:12:52.454Z,6.30
2023-04-02T08:15:20.130Z,6.30
2023-04-02T08:17:48.106Z,6.23
2023-04-02T08:20:17.969Z,6.40
2023-04-02T08:22:45.990Z,7.87
2023-04-02T08:25:13.785Z,6.63
2023-04-02T08:27:43.023Z,7.80
2023-04-02T08:30:12.523Z,5.90
2023-04-02T08:32:41.005Z,5.90
2023-04-02T08:35:09.946Z,6.13
2023-04-02T08:37:37.921Z,6.27
2023-04-02T08:40:07.989Z,6.17
2023-04-02T08:42:38.044Z,4.50
2023-04-02T08:45:24.422Z,5.93
2023-04-02T08:47:53.448Z,6.17
2023-04-02T08:50:26.228Z,6.17
2023-04-02T08:52:53.874Z,4.83
2023-04-02T08:55:27.928Z,5.50
2023-04-02T08:57:58.211Z,6.00
2023-04-02T09:00:31.756Z,5.20
2023-04-02T09:03:00.179Z,4.03
2023-04-02T09:05:28.972Z,5.27
2023-04-02T09:07:57.392Z,4.70
2023-04-02T09:10:27.105Z,4.40
2023-04-02T09:12:54.756Z,5.07
2023-04-02T09:15:24.742Z,4.90
2023-04-02T09:17:58.274Z,5.20
2023-04-02T09:20:27.730Z,4.87
2023-04-02T09:22:55.390Z,5.33
2023-04-02T09:25:26.816Z,5.17
2023-04-02T09:27:55.598Z,5.97
2023-04-02T09:30:29.574Z,5.23
2023-04-02T09:33:00.769Z,5.50
2023-04-02T09:35:29.280Z,3.80
2023-04-02T09:38:13.190Z,4.13
2023-04-02T09:40:44.000Z,4.60
2023-04-02T09:43:12.770Z,4.70
2023-04-02T09:45:41.084Z,4.63
2023-04-02T09:48:24.261Z,4.53
2023-04-02T09:50:51.972Z,4.73
2023-04-02T09:53:30.526Z,4.20
2023-04-02T09:56:09.230Z,3.97
2023-04-02T09:58:36.855Z,4.17
2023-04-02T10:01:04.668Z,4.63
2023-04-02T10:03:34.308Z,4.47
2023-04-02T10:06:06.387Z,3.87
2023-04-02T10:08:34.131Z,4.17
2023-04-02T10:11:02.790Z,14.90
2023-04-02T10:13:31.726Z,4.90
2023-04-02T10:16:01.414Z,4.23
2023-04-02T10:18:37.474Z,4.10
2023-04-02T10:21:05.920Z,4.03
2023-04-02T10:23:33.696Z,3.90
2023-04-02T10:26:08.896Z,4.10
2023-04-02T10:28:45.817Z,2.73
2023-04-02T10:31:17.344Z,3.77
2023-04-02T10:33:48.465Z,4.33
2023-04-02T10:36:22.713Z,4.80
2023-04-02T10:38:50.572Z,4.20
2023-04-02T10:41:27.846Z,4.20
2023-04-02T10:44:19.598Z,3.90
2023-04-02T10:46:52.825Z,4.20
2023-04-02T10:49:26.282Z,4.73
2023-04-02T10:51:56.617Z,7.27
2023-04-02T10:54:34.238Z,4.67
2023-04-02T10:57:06.715Z,4.83
2023-04-02T10:59:35.555Z,3.93
2023-04-02T11:02:04.924Z,4.50
2023-04-02T11:04:35.812Z,3.67
2023-04-02T11:07:14.095Z,4.40
2023-04-02T11:09:43.727Z,3.90
2023-04-02T11:12:12.948Z,4.27
2023-04-02T11:14:41.003Z,3.90
2023-04-02T11:17:13.983Z,4.10
2023-04-02T11:19:44.106Z,3.47
2023-04-02T11:22:15.324Z,4.43
2023-04-02T11:24:46.697Z,3.70
2023-04-02T11:27:25.960Z,3.90
2023-04-02T11:35:39.157Z,3.20
2023-04-02T11:39:04.628Z,3.90
2023-04-02T11:42:01.836Z,3.00
2023-04-02T11:44:29.558Z,3.30
2023-04-02T11:47:19.159Z,2.77
2023-04-02T11:50:25.202Z,2.93
2023-04-02T11:52:54.823Z,3.20
2023-04-02T11:55:27.977Z,2.67
2023-04-02T11:58:33.207Z,3.40
2023-04-02T12:01:26.058Z,2.93
2023-04-02T12:04:09.259Z,2.87
2023-04-02T12:06:47.185Z,2.83
2023-04-02T12:09:20.290Z,2.97
2023-04-02T12:11:49.852Z,3.20
2023-04-02T12:14:45.555Z,3.37
2023-04-02T12:17:25.145Z,2.80
2023-04-02T12:19:54.275Z,3.37
2023-04-02T12:22:23.649Z,2.77
2023-04-02T12:24:54.167Z,2.57
2023-04-02T12:27:23.472Z,2.77
2023-04-02T12:29:52.276Z,2.33
2023-04-02T12:32:27.845Z,2.73
2023-04-02T12:34:58.849Z,2.27
2023-04-02T12:37:27.499Z,3.23
2023-04-02T12:39:58.265Z,2.80
2023-04-02T12:42:29.854Z,2.60
2023-04-02T12:44:57.613Z,2.60
2023-04-02T12:47:26.370Z,2.27
2023-04-02T12:49:54.358Z,2.73
2023-04-02T12:52:22.839Z,2.63
2023-04-02T12:54:53.202Z,2.53
2023-04-02T12:57:23.986Z,2.50
2023-04-02T12:59:52.050Z,2.90
2023-04-02T13:02:20.592Z,2.30
2023-04-02T13:04:49.156Z,2.20
2023-04-02T13:07:18.292Z,2.80
2023-04-02T13:09:46.902Z,2.27
2023-04-02T13:12:26.950Z,2.60
2023-04-02T13:14:56.199Z,2.30
2023-04-02T13:17:39.719Z,2.90
2023-04-02T13:20:30.400Z,2.57
2023-04-02T13:23:00.215Z,2.77
2023-04-02T13:25:30.918Z,2.50
2023-04-02T13:28:00.283Z,2.60
2023-04-02T13:30:30.004Z,2.50
2023-04-02T13:32:57.853Z,2.40
2023-04-02T13:35:27.150Z,2.67
2023-04-02T13:37:54.930Z,2.93
2023-04-02T13:40:24.689Z,2.50
2023-04-02T13:42:52.377Z,7.43
2023-04-02T13:45:26.347Z,2.50
2023-04-02T13:47:54.217Z,2.60
2023-04-02T13:50:23.011Z,2.73
2023-04-02T13:52:51.666Z,2.40
2023-04-02T13:55:19.555Z,2.20
2023-04-02T13:57:47.593Z,2.13
2023-04-02T14:00:16.168Z,2.07
2023-04-02T14:02:46.290Z,2.00
2023-04-02T14:05:24.559Z,2.17
2023-04-02T14:08:01.862Z,1.90
2023-04-02T14:10:37.220Z,2.43
2023-04-02T14:13:13.416Z,2.87
2023-04-02T14:15:49.825Z,2.77
2023-04-02T14:18:28.733Z,2.57
2023-04-02T14:21:01.833Z,1.90
2023-04-02T14:23:42.441Z,2.40
2023-04-02T14:26:13.688Z,2.17
2023-04-02T14:28:44.631Z,2.33
2023-04-02T14:31:16.598Z,2.47
2023-04-02T14:33:49.805Z,2.23
2023-04-02T14:36:19.020Z,2.10
2023-04-02T14:38:51.778Z,2.07
2023-04-02T14:41:21.491Z,1.80
2023-04-02T14:43:53.116Z,1.60
2023-04-02T14:46:21.070Z,2.07
2023-04-02T14:48:54.271Z,2.27
2023-04-02T14:51:24.711Z,2.27
2023-04-02T14:53:59.144Z,2.10
2023-04-02T14:56:26.963Z,2.50
2023-04-02T14:58:58.646Z,2.50
2023-04-02T15:01:28.317Z,2.77
2023-04-02T15:03:59.656Z,2.77
2023-04-02T15:06:28.620Z,2.77
2023-04-02T15:09:08.929Z,2.77
2023-04-02T15:11:38.246Z,3.20
2023-04-02T15:14:07.386Z,3.47
2023-04-02T15:16:36.429Z,3.23
2023-04-02T15:19:10.074Z,3.40
2023-04-02T15:22:01.045Z,3.10
2023-04-02T15:24:34.673Z,3.43
2023-04-02T15:27:11.901Z,2.90
2023-04-02T15:29:48.696Z,4.43
2023-04-02T15:32:23.936Z,3.47
2023-04-02T15:34:53.545Z,3.70
2023-04-02T15:37:21.818Z,3.67
2023-04-02T15:39:57.396Z,3.70
2023-04-02T15:42:25.963Z,6.40
2023-04-02T15:45:02.352Z,3.47
2023-04-02T15:47:33.949Z,6.73
2023-04-02T15:50:08.216Z,3.40
2023-04-02T15:52:38.428Z,3.03
2023-04-02T15:55:14.583Z,3.93
2023-04-02T15:57:53.284Z,3.80
2023-04-02T16:00:28.042Z,3.40
2023-04-02T16:03:08.977Z,3.80
2023-04-02T16:05:40.945Z,3.40
2023-04-02T16:08:31.184Z,3.27
2023-04-02T16:10:58.940Z,3.27
2023-04-02T16:13:30.430Z,2.80
2023-04-02T16:16:02.784Z,3.13
2023-04-02T16:18:34.456Z,3.17
2023-04-02T16:21:04.088Z,2.97
2023-04-02T16:23:35.052Z,3.10
2023-04-02T16:26:05.203Z,3.20
2023-04-02T16:28:34.766Z,3.07
2023-04-02T16:31:04.994Z,5.53
2023-04-02T16:33:46.503Z,14.97
2023-04-02T16:36:22.625Z,3.40
2023-04-02T16:38:57.361Z,2.80
2023-04-02T16:41:29.738Z,2.60
2023-04-02T16:44:01.521Z,2.40
2023-04-02T16:46:39.787Z,2.57
2023-04-02T16:49:15.889Z,2.67
2023-04-02T16:52:00.768Z,2.73
2023-04-02T16:54:31.023Z,2.43
2023-04-02T16:57:10.161Z,3.53
2023-04-02T17:02:43.273Z,2.50
2023-04-02T17:05:19.207Z,2.50
2023-04-02T17:07:50.703Z,1.87
2023-04-02T17:10:30.932Z,2.60
2023-04-02T17:13:13.998Z,3.00
2023-04-02T17:15:41.866Z,2.40
2023-04-02T17:18:17.281Z,2.83
2023-04-02T17:20:45.054Z,8.67
2023-04-02T17:23:16.024Z,2.60
2023-04-02T17:25:51.481Z,2.80
2023-04-02T17:28:25.360Z,2.80
2023-04-02T17:33:28.452Z,2.80
2023-04-02T17:36:03.678Z,4.10
2023-04-02T17:38:35.198Z,3.37
2023-04-02T17:41:04.836Z,3.27
2023-04-02T17:43:37.812Z,4.47
2023-04-02T17:46:07.542Z,3.17
2023-04-02T17:48:37.014Z,2.70
2023-04-02T17:51:09.861Z,3.87
2023-04-02T17:53:43.373Z,3.10
2023-04-02T17:56:24.622Z,3.33
2023-04-02T17:59:16.083Z,2.90
2023-04-02T18:01:46.862Z,2.70
2023-04-02T18:04:20.132Z,3.33
2023-04-02T18:06:51.757Z,4.83
2023-04-02T18:09:32.637Z,3.30
2023-04-02T18:12:04.968Z,2.50
2023-04-02T18:14:43.427Z,3.43
2023-04-02T18:17:12.919Z,2.73
2023-04-02T18:19:43.759Z,2.37
2023-04-02T18:22:14.621Z,2.90
2023-04-02T18:24:52.088Z,2.67
2023-04-02T18:27:28.653Z,3.20
2023-04-02T18:30:01.085Z,3.20
2023-04-02T18:32:46.611Z,18.57
2023-04-02T18:35:16.759Z,2.90
2023-04-02T18:37:48.718Z,3.67
2023-04-02T18:40:26.440Z,2.90
2023-04-02T18:43:01.035Z,3.33
2023-04-02T18:45:32.740Z,16.30
2023-04-02T18:48:03.317Z,7.77
2023-04-02T18:50:31.616Z,20.20
2023-04-02T18:52:59.357Z,3.57
2023-04-02T18:55:29.433Z,3.93
2023-04-02T18:57:59.932Z,3.20
2023-04-02T19:00:29.645Z,3.20
2023-04-02T19:03:00.194Z,3.37
2023-04-02T19:05:33.072Z,3.63
2023-04-02T19:08:03.468Z,3.80
2023-04-02T19:10:33.035Z,4.87
2023-04-02T19:13:00.861Z,5.13
2023-04-02T19:15:32.500Z,4.30
2023-04-02T19:18:01.618Z,3.83
2023-04-02T19:20:34.064Z,4.10
2023-04-02T19:23:07.756Z,4.33
2023-04-02T19:25:42.652Z,4.57
2023-04-02T19:28:14.168Z,4.93
2023-04-02T19:30:54.160Z,4.33
2023-04-02T19:33:30.089Z,4.40
2023-04-02T19:35:59.169Z,4.17
2023-04-02T19:38:40.524Z,4.10
2023-04-02T19:41:11.121Z,4.17
2023-04-02T19:43:38.793Z,4.67
2023-04-02T19:46:06.424Z,4.40
2023-04-02T19:48:37.795Z,4.10
2023-04-02T19:51:05.541Z,4.80
2023-04-02T19:53:33.326Z,4.07
2023-04-02T19:56:01.425Z,4.63
2023-04-02T19:58:31.221Z,4.27
2023-04-02T20:00:59.082Z,4.70
2023-04-02T20:03:27.815Z,4.80
2023-04-02T20:05:56.813Z,4.60
2023-04-02T20:08:24.477Z,4.70
2023-04-02T20:10:55.500Z,5.33
2023-04-02T20:13:23.303Z,4.30
2023-04-02T20:15:52.711Z,5.10
2023-04-02T20:18:24.798Z,5.00
2023-04-02T20:20:52.599Z,4.60
2023-04-02T20:23:20.331Z,5.20
2023-04-02T20:25:48.230Z,5.90
2023-04-02T20:28:16.009Z,5.63
2023-04-02T20:30:43.728Z,5.63
2023-04-02T20:33:12.828Z,5.80
2023-04-02T20:35:41.249Z,4.67
2023-04-02T20:38:09.146Z,4.40
2023-04-02T20:40:37.006Z,4.63
2023-04-02T20:43:04.830Z,4.83
2023-04-02T20:45:32.908Z,6.13
2023-04-02T20:48:00.653Z,5.20
2023-04-02T20:50:29.938Z,6.37
2023-04-02T20:52:58.952Z,5.83
2023-04-02T20:55:26.688Z,6.30
2023-04-02T20:57:54.687Z,5.47
2023-04-02T21:00:22.655Z,5.53
2023-04-02T21:02:50.302Z,5.33
2023-04-02T21:05:18.106Z,5.43
2023-04-02T21:07:48.540Z,5.73
2023-04-02T21:10:16.390Z,5.90
2023-04-02T21:12:44.045Z,5.30
2023-04-02T21:15:13.327Z,5.30
2023-04-02T21:17:41.061Z,5.83
2023-04-02T21:20:10.650Z,5.13
2023-04-02T21:22:39.042Z,4.50
2023-04-02T21:25:09.045Z,5.63
2023-04-02T21:27:36.696Z,5.53
2023-04-02T21:30:04.469Z,5.50
2023-04-02T21:32:32.993Z,5.13
2023-04-02T21:35:00.729Z,5.47
2023-04-02T21:37:28.334Z,5.63
2023-04-02T21:39:56.128Z,7.03
2023-04-02T21:42:28.843Z,6.20
2023-04-02T21:44:56.616Z,6.37
2023-04-02T21:47:24.853Z,6.57
2023-04-02T21:49:52.532Z,5.60
2023-04-02T21:52:20.141Z,5.50
2023-04-02T21:54:47.873Z,5.40
2023-04-02T21:57:17.800Z,5.70
2023-04-02T21:59:47.085Z,5.63
2023-04-02T22:02:14.680Z,6.10
2023-04-02T22:04:42.375Z,5.23
2023-04-02T22:07:09.984Z,6.43
2023-04-02T22:09:37.755Z,5.23
2023-04-02T22:12:07.784Z,5.80
2023-04-02T22:14:35.505Z,6.37
2023-04-02T22:17:04.516Z,5.87
2023-04-02T22:19:32.967Z,6.30
2023-04-02T22:22:00.630Z,6.20
2023-04-02T22:24:28.470Z,6.43
2023-04-02T22:26:56.083Z,6.93
2023-04-02T22:29:23.937Z,6.87
2023-04-02T22:31:51.703Z,6.63
2023-04-02T22:34:20.974Z,6.40
2023-04-02T22:36:48.609Z,7.00
2023-04-02T22:39:16.968Z,7.50
2023-04-02T22:41:44.659Z,6.83
2023-04-02T22:44:14.163Z,7.00
2023-04-02T22:46:41.909Z,6.80
2023-04-02T22:49:10.940Z,7.30
2023-04-02T22:51:39.902Z,6.33
2023-04-02T22:54:07.760Z,7.17
2023-04-02T22:56:37.328Z,6.90
2023-04-02T22:59:05.643Z,7.30
2023-04-02T23:01:34.538Z,6.87
2023-04-02T23:04:02.399Z,7.47
2023-04-02T23:06:30.121Z,7.13
2023-04-02T23:08:59.216Z,8.27
2023-04-02T23:11:27.764Z,8.30
2023-04-02T23:13:56.645Z,8.83
2023-04-02T23:16:26.605Z,9.20
2023-04-02T23:18:54.661Z,7.17
2023-04-02T23:21:22.472Z,8.03
2023-04-02T23:23:51.043Z,8.20
2023-04-02T23:26:21.218Z,8.63
2023-04-02T23:28:49.196Z,8.17
2023-04-02T23:33:51.144Z,8.37
2023-04-02T23:36:20.847Z,8.13
2023-04-02T23:38:48.631Z,8.50
2023-04-02T23:41:16.850Z,7.53
2023-04-02T23:43:45.849Z,8.17
2023-04-02T23:46:13.721Z,7.97
2023-04-02T23:48:41.366Z,7.40
2023-04-02T23:51:09.085Z,7.30
2023-04-02T23:53:36.704Z,7.30
2023-04-02T23:56:04.752Z,8.23
2023-04-02T23:58:32.372Z,8.13
